Latest Weather Observations for Badgingarra

IDW60801

Issued at 4:14 pm WST Thursday 18 December 2014 (issued every 30 minutes, with the page automatically refreshed every 10 minutes)

About weather observations | Map of weather stations | Latest weather observations for WA | Other Formats
Station Details ID: 009037 Name: BADGINGARRA RESEARCH STN Lat: -30.34 Lon: 115.54 Height: 275.0 m
Data from the previous 72 hours. | See also: Recent months at Badgingarra
Date/Time
WST
Temp
°C
App
Temp
°C
Dew
Point
Rel
Hum
%
Delta-T
°C
Wind Press
QNH
hPa
Press
MSL
hPa
Rain
since 9 am
mm
Dir
 
Spd
km/h
Gust
km/h
Spd
kts
Gust
kts
18/04:00pm 33.3 29.2 2.2 14 15.9 E 13 30 7 16 - - 0.0
18/03:30pm 33.5 28.7 2.4 14 16.0 ESE 17 28 9 15 - - 0.0
18/03:00pm 32.7 27.5 2.7 15 15.4 SE 19 37 10 20 - - 0.0
18/02:30pm 32.9 27.6 2.9 15 15.5 ESE 20 32 11 17 - - 0.0
18/02:00pm 32.2 27.7 4.1 17 14.8 E 17 28 9 15 - - 0.0
18/01:30pm 31.8 27.7 4.6 18 14.4 ESE 15 32 8 17 - - 0.0
18/01:00pm 30.6 25.6 4.4 19 13.7 SE 20 32 11 17 - - 0.0
18/12:30pm 30.6 25.8 4.4 19 13.7 ESE 19 30 10 16 - - 0.0
18/12:00pm 30.1 24.1 5.4 21 13.1 ESE 26 37 14 20 - - 0.0
18/11:30am 29.2 23.6 7.2 25 12.0 ESE 26 50 14 27 - - 0.0
18/11:00am 28.4 22.0 7.1 26 11.5 ESE 30 41 16 22 - - 0.0
18/10:30am 27.4 20.6 7.8 29 10.7 ESE 33 44 18 24 - - 0.0
18/10:00am 27.0 20.6 8.4 31 10.2 E 32 44 17 24 - - 0.0
18/09:30am 24.9 17.4 8.0 34 9.1 ESE 37 48 20 26 - - 0.0
18/09:00am 23.7 16.3 8.2 37 8.3 E 37 48 20 26 - - 0.0
18/08:30am 22.3 15.0 8.8 42 7.3 ESE 37 44 20 24 - - 0.0
18/08:00am 21.1 14.2 8.7 45 6.6 E 35 48 19 26 - - 0.0
18/07:30am 19.8 12.3 9.4 51 5.6 E 39 56 21 30 - - 0.0
18/07:00am 18.2 10.6 9.0 55 4.9 E 39 52 21 28 - - 0.0
18/06:30am 17.1 10.7 9.3 60 4.1 ESE 33 50 18 27 - - 0.0
18/06:00am 16.1 9.7 9.3 64 3.6 ESE 33 44 18 24 - - 0.0
18/05:30am 15.5 9.3 9.2 66 3.3 ESE 32 41 17 22 - - 0.0
18/05:00am 15.6 8.8 9.1 65 3.4 ESE 35 44 19 24 - - 0.0
18/04:30am 15.8 9.6 9.5 66 3.3 ESE 32 44 17 24 - - 0.0
18/04:00am 15.1 10.9 9.7 70 2.8 SE 22 30 12 16 - - 0.0
18/03:30am 14.7 10.4 10.7 77 2.1 SE 24 32 13 17 - - 0.0
18/03:00am 13.2 10.0 11.9 92 0.7 SSE 20 26 11 14 - - 0.0
18/02:30am 13.2 9.6 11.9 92 0.7 SSE 22 26 12 14 - - 0.0
18/02:00am 13.9 10.2 12.6 92 0.7 SSE 24 30 13 16 - - 0.0
18/01:30am 14.3 10.3 13.0 92 0.7 S 26 32 14 17 - - 0.0
18/01:00am 14.2 10.2 12.9 92 0.7 S 26 32 14 17 - - 0.0
18/12:30am 14.4 10.0 13.0 91 0.8 S 28 37 15 20 - - 0.0
18/12:00am 14.5 9.7 12.9 90 0.9 S 30 35 16 19 - - 0.0
 
Date/Time
WST
Temp
°C
App
Temp
°C
Dew
Point
Rel
Hum
%
Delta-T
°C
Wind Press
QNH
hPa
Press
MSL
hPa
Rain
since 9 am
mm
Dir
 
Spd
km/h
Gust
km/h
Spd
kts
Gust
kts
17/11:30pm 14.6 9.4 12.8 89 1.0 S 32 39 17 21 - - 0.0
17/11:00pm 14.7 9.2 12.6 87 1.2 S 33 43 18 23 - - 0.0
17/10:30pm 15.0 9.1 12.5 85 1.4 S 35 43 19 23 - - 0.0
17/10:00pm 15.1 8.7 12.1 82 1.7 S 37 44 20 24 - - 0.0
17/09:30pm 15.3 9.2 11.7 79 2.0 S 35 46 19 25 - - 0.0
17/09:00pm 15.5 9.3 11.3 76 2.3 S 35 43 19 23 - - 0.0
17/08:30pm 15.9 10.1 10.9 72 2.7 S 32 41 17 22 - - 0.0
17/08:00pm 16.4 10.9 10.5 68 3.2 SSW 30 39 16 21 - - 0.0
17/07:30pm 17.0 11.0 10.1 64 3.7 SSW 32 43 17 23 - - 0.0
17/07:00pm 18.0 11.4 10.1 60 4.3 S 35 46 19 25 - - 0.0
17/06:30pm 19.2 12.3 10.2 56 4.9 SSW 37 46 20 25 - - 0.0
17/06:00pm 20.7 14.0 9.6 49 6.0 SSW 35 46 19 25 - - 0.0
17/05:30pm 21.6 14.5 9.5 46 6.6 SSW 37 44 20 24 - - 0.0
17/05:00pm 23.1 16.6 9.1 41 7.6 SSW 33 44 18 24 - - 0.0
17/04:30pm 23.5 16.5 8.4 38 8.1 SSW 35 46 19 25 - - 0.0
17/04:00pm 24.6 17.8 7.7 34 9.0 SSW 33 43 18 23 - - 0.0
17/03:30pm 25.5 19.1 7.1 31 9.8 SSW 30 44 16 24 - - 0.0
17/03:00pm 25.3 18.9 7.0 31 9.7 SSW 30 39 16 21 - - 0.0
17/02:30pm 25.1 18.7 6.8 31 9.7 SSW 30 43 16 23 - - 0.0
17/02:00pm 25.9 19.1 7.0 30 10.1 SSW 32 43 17 23 - - 0.0
17/01:49pm 26.1 20.0 6.7 29 10.3 S 28 46 15 25 - - 0.0
17/01:30pm 26.1 20.9 5.7 27 10.6 SSW 22 35 12 19 - - 0.0
17/01:00pm 26.0 21.0 6.6 29 10.3 S 22 33 12 18 - - 0.0
17/12:30pm 24.4 19.9 6.2 31 9.5 S 19 37 10 20 - - 0.0
17/12:00pm 24.0 19.0 6.3 32 9.2 S 22 37 12 20 - - 0.0
17/11:30am 23.1 18.1 6.4 34 8.7 S 22 32 12 17 - - 0.0
17/11:00am 22.5 17.5 6.3 35 8.3 S 22 33 12 18 - - 0.0
17/10:30am 21.8 16.5 6.9 38 7.7 S 24 35 13 19 - - 0.0
17/10:00am 21.2 15.8 8.1 43 6.9 S 26 39 14 21 - - 0.0
17/09:30am 21.1 16.3 9.0 46 6.5 S 24 37 13 20 - - 0.0
17/09:00am 18.7 12.6 8.1 50 5.5 S 30 39 16 21 - - 0.0
17/08:30am 18.1 11.4 8.1 52 5.2 S 33 43 18 23 - - 0.0
17/08:00am 17.8 10.8 8.6 55 4.8 SSE 35 48 19 26 - - 0.0
17/07:30am 16.7 10.1 8.7 59 4.2 SSE 33 44 18 24 - - 0.0
17/07:00am 15.4 9.0 9.3 67 3.2 S 33 48 18 26 - - 0.0
17/06:57am 15.4 9.2 9.5 68 3.1 S 32 48 17 26 - - 0.0
17/06:30am 13.9 10.0 9.5 75 2.3 S 20 26 11 14 - - 0.0
17/06:00am 12.3 9.0 9.5 83 1.4 S 17 22 9 12 - - 0.0
17/05:30am 11.8 8.1 9.4 85 1.2 S 19 26 10 14 - - 0.0
17/05:00am 11.8 7.5 9.4 85 1.2 S 22 28 12 15 - - 0.0
17/04:30am 11.8 7.2 9.5 86 1.2 S 24 30 13 16 - - 0.0
17/04:00am 11.9 7.6 9.5 85 1.2 S 22 30 12 16 - - 0.0
17/03:30am 12.3 7.0 9.7 84 1.3 S 28 33 15 18 - - 0.0
17/03:00am 12.5 6.8 9.7 83 1.4 S 30 35 16 19 - - 0.0
17/02:30am 12.3 8.1 9.7 84 1.3 S 22 28 12 15 - - 0.0
17/02:00am 12.4 8.5 9.6 83 1.4 S 20 28 11 15 - - 0.0
17/01:30am 12.6 7.7 9.8 83 1.5 S 26 33 14 18 - - 0.0
17/01:00am 12.8 6.5 9.8 82 1.6 S 33 41 18 22 - - 0.0
17/12:30am 12.9 6.8 9.9 82 1.6 S 32 41 17 22 - - 0.0
17/12:00am 13.0 6.7 9.8 81 1.7 S 33 43 18 23 - - 0.0
 
Date/Time
WST
Temp
°C
App
Temp
°C
Dew
Point
Rel
Hum
%
Delta-T
°C
Wind Press
QNH
hPa
Press
MSL
hPa
Rain
since 9 am
mm
Dir
 
Spd
km/h
Gust
km/h
Spd
kts
Gust
kts
16/11:30pm 13.4 6.8 10.0 80 1.8 S 35 44 19 24 - - 0.0
16/11:00pm 13.3 7.2 9.9 80 1.8 S 32 41 17 22 - - 0.0
16/10:30pm 13.3 7.1 9.9 80 1.8 S 33 43 18 23 - - 0.0
16/10:00pm 13.6 7.6 10.0 79 1.9 S 32 43 17 23 - - 0.0
16/09:30pm 13.8 7.8 10.0 78 2.0 S 32 39 17 21 - - 0.0
16/09:00pm 14.2 8.2 10.2 77 2.1 S 32 39 17 21 - - 0.0
16/08:30pm 14.6 8.6 10.2 75 2.3 SSW 32 41 17 22 - - 0.0
16/08:00pm 14.9 9.3 10.1 73 2.5 SSW 30 39 16 21 - - 0.0
16/07:30pm 15.7 9.7 10.0 69 3.0 SSW 32 39 17 21 - - 0.0
16/07:00pm 16.8 9.6 9.2 61 4.0 SSW 37 44 20 24 - - 0.0
16/06:30pm 18.3 11.2 9.4 56 4.7 SSW 37 44 20 24 - - 0.0
16/06:00pm 19.4 12.6 9.3 52 5.4 SSW 35 44 19 24 - - 0.0
16/05:30pm 20.9 14.2 9.8 49 6.0 SSW 35 46 19 25 - - 0.0
16/05:00pm 21.9 14.8 9.4 45 6.8 SSW 37 44 20 24 - - 0.0
16/04:30pm 23.0 16.2 9.4 42 7.4 SSW 35 48 19 26 - - 0.0
16/04:00pm 23.6 17.2 9.2 40 7.9 SSW 33 41 18 22 - - 0.0
16/03:30pm 25.3 19.0 9.6 37 8.7 SSW 33 43 18 23 - - 0.0
16/03:00pm 25.9 19.6 9.7 36 9.0 SSW 33 46 18 25 - - 0.0
16/02:30pm 27.6 22.7 9.9 33 10.0 SSW 26 39 14 21 - - 0.0
16/02:00pm 27.2 23.8 9.1 32 10.1 S 17 30 9 16 - - 0.0
16/01:30pm 26.7 23.8 8.2 31 10.1 SW 13 24 7 13 - - 0.0
16/01:00pm 27.1 24.8 9.0 32 10.0 SSW 11 24 6 13 - - 0.0
16/12:30pm 25.7 23.2 8.2 33 9.5 S 11 20 6 11 - - 0.0
16/12:00pm 25.2 23.2 8.7 35 9.0 SW 9 20 5 11 - - 0.0
16/11:30am 24.3 22.3 8.7 37 8.5 SW 9 17 5 9 - - 0.0
16/11:00am 23.6 22.2 9.6 41 7.7 W 7 13 4 7 - - 0.0
16/10:30am 22.7 21.4 9.8 44 7.1 NNE 7 15 4 8 - - 0.0
16/10:00am 21.5 19.4 9.7 47 6.4 E 11 19 6 10 - - 0.0
16/09:30am 21.2 19.2 10.1 49 6.1 SE 11 19 6 10 - - 0.0
16/09:00am 20.4 17.6 9.9 51 5.7 SE 15 22 8 12 - - 0.0
16/08:30am 19.4 15.9 10.1 55 5.0 ESE 19 26 10 14 - - 0.0
16/08:00am 18.2 14.5 10.1 59 4.4 SE 20 28 11 15 - - 0.0
16/07:30am 17.0 12.8 9.9 63 3.8 SE 22 30 12 16 - - 0.0
16/07:00am 15.7 11.9 11.3 75 2.4 SSE 22 28 12 15 - - 0.0
16/06:30am 13.9 10.5 11.4 85 1.3 SSE 20 24 11 13 - - 0.0
16/06:00am 12.7 9.6 11.6 93 0.6 SSE 19 22 10 12 - - 0.0
16/05:30am 11.9 9.0 11.1 95 0.4 SSE 17 22 9 12 - - 0.0
16/05:00am 12.1 8.9 11.3 95 0.4 S 19 22 10 12 - - 0.0
16/04:30am 12.0 9.2 11.2 95 0.4 S 17 20 9 11 - - 0.0
16/04:00am 12.5 9.7 11.4 93 0.6 S 17 20 9 11 - - 0.0
16/03:30am 12.3 9.5 11.4 94 0.5 S 17 20 9 11 - - 0.0
16/03:00am 12.2 9.3 11.1 93 0.6 S 17 22 9 12 - - 0.0
16/02:30am 12.0 9.8 10.9 93 0.6 S 13 17 7 9 - - 0.0
16/02:00am 12.7 9.8 11.1 90 0.9 S 17 19 9 10 - - 0.0
16/01:30am 12.6 9.3 10.8 89 1.0 S 19 22 10 12 - - 0.0
16/01:00am 12.8 9.5 10.9 88 1.0 S 19 22 10 12 - - 0.0
16/12:30am 12.6 10.0 10.8 89 1.0 S 15 19 8 10 - - 0.0
16/12:00am 11.9 9.0 9.8 87 1.1 S 15 17 8 9 - - 0.0
 
Date/Time
WST
Temp
°C
App
Temp
°C
Dew
Point
Rel
Hum
%
Delta-T
°C
Wind Press
QNH
hPa
Press
MSL
hPa
Rain
since 9 am
mm
Dir
 
Spd
km/h
Gust
km/h
Spd
kts
Gust
kts
15/11:30pm 12.4 9.6 10.1 86 1.2 S 15 17 8 9 - - 0.0
15/11:00pm 12.9 10.6 10.3 84 1.4 S 13 15 7 8 - - 0.0
15/10:30pm 13.7 10.9 10.1 79 1.9 S 15 20 8 11 - - 0.0
15/10:00pm 13.9 11.5 10.1 78 2.0 SSE 13 17 7 9 - - 0.0
15/09:30pm 14.3 11.5 9.9 75 2.3 S 15 20 8 11 - - 0.0
15/09:00pm 15.0 11.9 10.2 73 2.5 S 17 22 9 12 - - 0.0
15/08:30pm 15.7 10.8 10.0 69 3.0 S 26 35 14 19 - - 0.0
15/08:00pm 16.6 10.7 10.5 67 3.3 S 32 37 17 20 - - 0.0
15/07:30pm 17.3 11.4 11.3 68 3.3 SSW 33 43 18 23 - - 0.0
15/07:00pm 17.5 12.0 11.8 69 3.2 SSW 32 39 17 21 - - 0.0
15/06:30pm 18.2 12.1 11.7 66 3.6 SSW 35 44 19 24 - - 0.0
15/06:00pm 19.3 13.3 12.1 63 4.1 SSW 35 46 19 25 - - 0.0
15/05:30pm 19.4 13.1 10.9 58 4.7 SSW 35 46 19 25 - - 0.0
15/05:00pm 21.4 15.7 11.7 54 5.5 SSW 33 46 18 25 - - 0.0
15/04:30pm 21.7 16.0 11.7 53 5.7 SSW 33 46 18 25 - - 0.0

Other Formats:

Comma delimited format used in spreadsheet applications
http://www.bom.gov.au/fwo/IDW60801/IDW60801.94603.axf

JavaScript Object Notation format (JSON) in row-major order
http://www.bom.gov.au/fwo/IDW60801/IDW60801.94603.json